Terminal Aerodrome Forecast
Issued by NWS

Home | Current Version | Previous Version | Text Only | Print | Product List | Glossary On
Versions: 1 2 3 4 5 6 7 8 9 10 11 12 13 14 15 16
000
FTUS43 KIND 301100
TAFHUF
TAF
KHUF 301130Z 3012/3112 32012G20KT P6SM BKN040
     FM301400 35009KT P6SM BKN040
     FM302000 34004KT P6SM SCT040
     FM310000 VRB02KT P6SM SCT250=

USA.gov is the U.S. government's official web portal to all federal, state and local government web resources and services.